sensor_id;sensor_type;location;lat;lon;timestamp;P1;durP1;ratioP1;P2;durP2;ratioP2
15067;SDS011;7633;60.024;18.770;2023-08-31T00:02:12;1.70;;;1.60;;
15067;SDS011;7633;60.024;18.770;2023-08-31T00:04:37;1.85;;;1.63;;
15067;SDS011;7633;60.024;18.770;2023-08-31T00:07:03;1.70;;;1.60;;
15067;SDS011;7633;60.024;18.770;2023-08-31T00:09:28;2.40;;;1.75;;
15067;SDS011;7633;60.024;18.770;2023-08-31T00:11:54;1.92;;;1.77;;
15067;SDS011;7633;60.024;18.770;2023-08-31T00:14:21;1.70;;;1.60;;
15067;SDS011;7633;60.024;18.770;2023-08-31T00:16:47;3.30;;;2.10;;
15067;SDS011;7633;60.024;18.770;2023-08-31T00:19:13;2.00;;;1.80;;
15067;SDS011;7633;60.024;18.770;2023-08-31T00:21:39;1.90;;;1.70;;
15067;SDS011;7633;60.024;18.770;2023-08-31T00:24:04;1.65;;;1.55;;
15067;SDS011;7633;60.024;18.770;2023-08-31T00:26:30;1.58;;;1.48;;
15067;SDS011;7633;60.024;18.770;2023-08-31T00:28:56;2.10;;;1.50;;
15067;SDS011;7633;60.024;18.770;2023-08-31T00:31:21;3.05;;;1.92;;
15067;SDS011;7633;60.024;18.770;2023-08-31T00:33:47;1.63;;;1.50;;
15067;SDS011;7633;60.024;18.770;2023-08-31T00:36:13;2.00;;;1.73;;
15067;SDS011;7633;60.024;18.770;2023-08-31T00:38:39;1.60;;;1.50;;
15067;SDS011;7633;60.024;18.770;2023-08-31T00:41:05;2.20;;;1.70;;
15067;SDS011;7633;60.024;18.770;2023-08-31T00:43:30;2.20;;;1.60;;
15067;SDS011;7633;60.024;18.770;2023-08-31T00:45:56;1.85;;;1.75;;
15067;SDS011;7633;60.024;18.770;2023-08-31T00:48:23;1.80;;;1.70;;
15067;SDS011;7633;60.024;18.770;2023-08-31T00:50:48;1.67;;;1.58;;
15067;SDS011;7633;60.024;18.770;2023-08-31T00:53:14;1.50;;;1.40;;
15067;SDS011;7633;60.024;18.770;2023-08-31T00:55:40;1.60;;;1.50;;
15067;SDS011;7633;60.024;18.770;2023-08-31T00:58:09;2.05;;;1.52;;
15067;SDS011;7633;60.024;18.770;2023-08-31T01:00:47;1.40;;;1.30;;
15067;SDS011;7633;60.024;18.770;2023-08-31T01:03:20;2.10;;;1.50;;
15067;SDS011;7633;60.024;18.770;2023-08-31T01:05:55;2.10;;;1.25;;
15067;SDS011;7633;60.024;18.770;2023-08-31T01:11:27;3.20;;;1.50;;
15067;SDS011;7633;60.024;18.770;2023-08-31T01:14:00;1.70;;;1.60;;
15067;SDS011;7633;60.024;18.770;2023-08-31T01:16:28;1.70;;;1.60;;
15067;SDS011;7633;60.024;18.770;2023-08-31T01:18:54;1.60;;;1.50;;
15067;SDS011;7633;60.024;18.770;2023-08-31T01:21:25;1.90;;;1.70;;
15067;SDS011;7633;60.024;18.770;2023-08-31T01:23:53;1.80;;;1.48;;
15067;SDS011;7633;60.024;18.770;2023-08-31T01:26:19;1.73;;;1.30;;
15067;SDS011;7633;60.024;18.770;2023-08-31T01:28:45;1.70;;;1.60;;
15067;SDS011;7633;60.024;18.770;2023-08-31T01:31:10;2.60;;;1.70;;
15067;SDS011;7633;60.024;18.770;2023-08-31T01:33:36;1.90;;;1.80;;
15067;SDS011;7633;60.024;18.770;2023-08-31T01:36:01;2.28;;;1.60;;
15067;SDS011;7633;60.024;18.770;2023-08-31T01:38:29;1.98;;;1.77;;
15067;SDS011;7633;60.024;18.770;2023-08-31T01:41:00;2.08;;;1.50;;
15067;SDS011;7633;60.024;18.770;2023-08-31T01:43:28;1.85;;;1.67;;
15067;SDS011;7633;60.024;18.770;2023-08-31T01:45:56;1.90;;;1.47;;
15067;SDS011;7633;60.024;18.770;2023-08-31T01:48:21;2.80;;;2.13;;
15067;SDS011;7633;60.024;18.770;2023-08-31T01:50:47;1.70;;;1.60;;
15067;SDS011;7633;60.024;18.770;2023-08-31T01:53:12;1.70;;;1.60;;
15067;SDS011;7633;60.024;18.770;2023-08-31T01:55:38;2.33;;;1.70;;
15067;SDS011;7633;60.024;18.770;2023-08-31T01:58:03;2.17;;;1.42;;
15067;SDS011;7633;60.024;18.770;2023-08-31T02:00:29;2.30;;;1.70;;
15067;SDS011;7633;60.024;18.770;2023-08-31T02:02:54;2.00;;;1.63;;
15067;SDS011;7633;60.024;18.770;2023-08-31T02:05:19;2.50;;;2.03;;
15067;SDS011;7633;60.024;18.770;2023-08-31T02:07:44;2.25;;;1.60;;
15067;SDS011;7633;60.024;18.770;2023-08-31T02:10:10;1.60;;;1.50;;
15067;SDS011;7633;60.024;18.770;2023-08-31T02:12:35;2.10;;;1.90;;
15067;SDS011;7633;60.024;18.770;2023-08-31T02:15:03;1.70;;;1.60;;
15067;SDS011;7633;60.024;18.770;2023-08-31T02:17:29;2.00;;;1.67;;
15067;SDS011;7633;60.024;18.770;2023-08-31T02:19:54;1.95;;;1.45;;
15067;SDS011;7633;60.024;18.770;2023-08-31T02:22:20;1.95;;;1.85;;
15067;SDS011;7633;60.024;18.770;2023-08-31T02:24:46;1.60;;;1.50;;
15067;SDS011;7633;60.024;18.770;2023-08-31T02:27:11;2.55;;;2.03;;
15067;SDS011;7633;60.024;18.770;2023-08-31T02:29:36;1.80;;;1.70;;
15067;SDS011;7633;60.024;18.770;2023-08-31T02:32:05;1.95;;;1.80;;
15067;SDS011;7633;60.024;18.770;2023-08-31T02:34:31;3.75;;;2.00;;
15067;SDS011;7633;60.024;18.770;2023-08-31T02:36:56;1.80;;;1.70;;
15067;SDS011;7633;60.024;18.770;2023-08-31T02:39:21;2.53;;;1.70;;
15067;SDS011;7633;60.024;18.770;2023-08-31T02:41:47;1.65;;;1.55;;
15067;SDS011;7633;60.024;18.770;2023-08-31T02:44:12;2.50;;;1.85;;
15067;SDS011;7633;60.024;18.770;2023-08-31T02:46:37;1.90;;;1.80;;
15067;SDS011;7633;60.024;18.770;2023-08-31T02:49:02;1.95;;;1.63;;
15067;SDS011;7633;60.024;18.770;2023-08-31T02:51:28;1.35;;;1.25;;
15067;SDS011;7633;60.024;18.770;2023-08-31T02:53:53;1.58;;;1.48;;
15067;SDS011;7633;60.024;18.770;2023-08-31T02:56:18;1.40;;;1.30;;
15067;SDS011;7633;60.024;18.770;2023-08-31T02:58:44;1.70;;;1.52;;
15067;SDS011;7633;60.024;18.770;2023-08-31T03:01:09;1.88;;;1.73;;
15067;SDS011;7633;60.024;18.770;2023-08-31T03:03:38;1.98;;;1.77;;
15067;SDS011;7633;60.024;18.770;2023-08-31T03:06:05;4.15;;;2.25;;
15067;SDS011;7633;60.024;18.770;2023-08-31T03:08:31;1.58;;;1.48;;
15067;SDS011;7633;60.024;18.770;2023-08-31T03:10:56;2.55;;;1.95;;
15067;SDS011;7633;60.024;18.770;2023-08-31T03:13:22;1.73;;;1.63;;
15067;SDS011;7633;60.024;18.770;2023-08-31T03:15:47;2.65;;;1.92;;
15067;SDS011;7633;60.024;18.770;2023-08-31T03:18:12;2.53;;;1.47;;
15067;SDS011;7633;60.024;18.770;2023-08-31T03:20:38;1.88;;;1.75;;
15067;SDS011;7633;60.024;18.770;2023-08-31T03:23:03;1.77;;;1.67;;
15067;SDS011;7633;60.024;18.770;2023-08-31T03:25:29;1.85;;;1.75;;
15067;SDS011;7633;60.024;18.770;2023-08-31T03:27:54;1.65;;;1.50;;
15067;SDS011;7633;60.024;18.770;2023-08-31T03:30:20;3.08;;;1.55;;
15067;SDS011;7633;60.024;18.770;2023-08-31T03:32:45;2.33;;;2.00;;
15067;SDS011;7633;60.024;18.770;2023-08-31T03:35:11;1.80;;;1.70;;
15067;SDS011;7633;60.024;18.770;2023-08-31T03:37:37;1.85;;;1.75;;
15067;SDS011;7633;60.024;18.770;2023-08-31T03:40:02;1.65;;;1.55;;
15067;SDS011;7633;60.024;18.770;2023-08-31T03:42:29;1.50;;;1.40;;
15067;SDS011;7633;60.024;18.770;2023-08-31T03:44:54;2.72;;;2.40;;
15067;SDS011;7633;60.024;18.770;2023-08-31T03:47:20;1.95;;;1.70;;
15067;SDS011;7633;60.024;18.770;2023-08-31T03:49:45;1.80;;;1.40;;
15067;SDS011;7633;60.024;18.770;2023-08-31T03:52:10;1.63;;;1.52;;
15067;SDS011;7633;60.024;18.770;2023-08-31T03:54:36;1.60;;;1.50;;
15067;SDS011;7633;60.024;18.770;2023-08-31T03:57:01;2.90;;;2.17;;
15067;SDS011;7633;60.024;18.770;2023-08-31T03:59:30;1.70;;;1.42;;
15067;SDS011;7633;60.024;18.770;2023-08-31T04:01:55;1.50;;;1.40;;
15067;SDS011;7633;60.024;18.770;2023-08-31T04:04:20;1.90;;;1.50;;
15067;SDS011;7633;60.024;18.770;2023-08-31T04:06:46;3.08;;;1.73;;
15067;SDS011;7633;60.024;18.770;2023-08-31T04:09:11;1.83;;;1.60;;
15067;SDS011;7633;60.024;18.770;2023-08-31T04:11:37;1.70;;;1.60;;
15067;SDS011;7633;60.024;18.770;2023-08-31T04:14:02;2.33;;;1.60;;
15067;SDS011;7633;60.024;18.770;2023-08-31T04:16:27;1.83;;;1.73;;
15067;SDS011;7633;60.024;18.770;2023-08-31T04:18:54;1.70;;;1.60;;
15067;SDS011;7633;60.024;18.770;2023-08-31T04:21:19;3.28;;;1.60;;
15067;SDS011;7633;60.024;18.770;2023-08-31T04:23:45;1.77;;;1.67;;
15067;SDS011;7633;60.024;18.770;2023-08-31T04:26:12;2.07;;;1.80;;
15067;SDS011;7633;60.024;18.770;2023-08-31T04:28:41;1.87;;;1.77;;
15067;SDS011;7633;60.024;18.770;2023-08-31T04:31:07;1.90;;;1.80;;
15067;SDS011;7633;60.024;18.770;2023-08-31T04:33:33;1.65;;;1.50;;
15067;SDS011;7633;60.024;18.770;2023-08-31T04:35:59;2.42;;;1.52;;
15067;SDS011;7633;60.024;18.770;2023-08-31T04:38:24;2.17;;;1.60;;
15067;SDS011;7633;60.024;18.770;2023-08-31T04:40:49;1.60;;;1.50;;
15067;SDS011;7633;60.024;18.770;2023-08-31T04:43:15;1.73;;;1.50;;
15067;SDS011;7633;60.024;18.770;2023-08-31T04:45:42;2.00;;;1.40;;
15067;SDS011;7633;60.024;18.770;2023-08-31T04:48:07;1.42;;;1.33;;
15067;SDS011;7633;60.024;18.770;2023-08-31T04:50:32;2.33;;;1.38;;
15067;SDS011;7633;60.024;18.770;2023-08-31T04:52:58;1.60;;;1.50;;
15067;SDS011;7633;60.024;18.770;2023-08-31T04:55:23;1.60;;;1.50;;
15067;SDS011;7633;60.024;18.770;2023-08-31T04:57:50;2.05;;;1.48;;
15067;SDS011;7633;60.024;18.770;2023-08-31T05:00:15;2.37;;;1.47;;
15067;SDS011;7633;60.024;18.770;2023-08-31T05:02:41;1.40;;;1.30;;
15067;SDS011;7633;60.024;18.770;2023-08-31T05:05:07;2.15;;;1.52;;
15067;SDS011;7633;60.024;18.770;2023-08-31T05:07:32;1.80;;;1.60;;
15067;SDS011;7633;60.024;18.770;2023-08-31T05:09:59;2.10;;;1.90;;
15067;SDS011;7633;60.024;18.770;2023-08-31T05:12:24;1.95;;;1.77;;
15067;SDS011;7633;60.024;18.770;2023-08-31T05:14:49;1.77;;;1.67;;
15067;SDS011;7633;60.024;18.770;2023-08-31T05:17:15;1.60;;;1.50;;
15067;SDS011;7633;60.024;18.770;2023-08-31T05:19:40;1.80;;;1.50;;
15067;SDS011;7633;60.024;18.770;2023-08-31T05:22:05;2.22;;;2.00;;
15067;SDS011;7633;60.024;18.770;2023-08-31T05:24:30;2.05;;;1.88;;
15067;SDS011;7633;60.024;18.770;2023-08-31T05:26:56;1.77;;;1.67;;
15067;SDS011;7633;60.024;18.770;2023-08-31T05:29:21;3.38;;;2.13;;
15067;SDS011;7633;60.024;18.770;2023-08-31T05:31:47;2.65;;;2.10;;
15067;SDS011;7633;60.024;18.770;2023-08-31T05:34:16;2.42;;;2.20;;
15067;SDS011;7633;60.024;18.770;2023-08-31T05:36:41;2.78;;;2.08;;
15067;SDS011;7633;60.024;18.770;2023-08-31T05:39:06;2.22;;;2.03;;
15067;SDS011;7633;60.024;18.770;2023-08-31T05:41:33;2.35;;;2.15;;
15067;SDS011;7633;60.024;18.770;2023-08-31T05:43:58;2.20;;;2.00;;
15067;SDS011;7633;60.024;18.770;2023-08-31T05:46:26;2.30;;;1.90;;
15067;SDS011;7633;60.024;18.770;2023-08-31T05:48:52;1.75;;;1.65;;
15067;SDS011;7633;60.024;18.770;2023-08-31T05:51:17;2.35;;;2.08;;
15067;SDS011;7633;60.024;18.770;2023-08-31T05:53:42;1.70;;;1.60;;
15067;SDS011;7633;60.024;18.770;2023-08-31T05:56:08;1.95;;;1.77;;
15067;SDS011;7633;60.024;18.770;2023-08-31T05:58:34;2.15;;;1.90;;
15067;SDS011;7633;60.024;18.770;2023-08-31T06:01:00;1.80;;;1.70;;
15067;SDS011;7633;60.024;18.770;2023-08-31T06:03:25;1.83;;;1.73;;
15067;SDS011;7633;60.024;18.770;2023-08-31T06:05:54;3.63;;;2.38;;
15067;SDS011;7633;60.024;18.770;2023-08-31T06:08:20;1.67;;;1.58;;
15067;SDS011;7633;60.024;18.770;2023-08-31T06:10:45;2.53;;;1.70;;
15067;SDS011;7633;60.024;18.770;2023-08-31T06:13:10;2.47;;;1.75;;
15067;SDS011;7633;60.024;18.770;2023-08-31T06:15:36;1.83;;;1.73;;
15067;SDS011;7633;60.024;18.770;2023-08-31T06:18:01;1.85;;;1.75;;
15067;SDS011;7633;60.024;18.770;2023-08-31T06:20:26;2.30;;;2.10;;
15067;SDS011;7633;60.024;18.770;2023-08-31T06:22:51;1.92;;;1.63;;
15067;SDS011;7633;60.024;18.770;2023-08-31T06:25:17;1.90;;;1.80;;
15067;SDS011;7633;60.024;18.770;2023-08-31T06:27:43;1.98;;;1.88;;
15067;SDS011;7633;60.024;18.770;2023-08-31T06:30:09;1.70;;;1.60;;
15067;SDS011;7633;60.024;18.770;2023-08-31T06:32:37;1.90;;;1.80;;
15067;SDS011;7633;60.024;18.770;2023-08-31T06:35:02;1.98;;;1.83;;
15067;SDS011;7633;60.024;18.770;2023-08-31T06:37:29;2.45;;;2.03;;
15067;SDS011;7633;60.024;18.770;2023-08-31T06:39:54;2.28;;;1.60;;
15067;SDS011;7633;60.024;18.770;2023-08-31T06:42:20;2.97;;;1.80;;
15067;SDS011;7633;60.024;18.770;2023-08-31T06:44:46;2.08;;;1.75;;
15067;SDS011;7633;60.024;18.770;2023-08-31T06:47:12;1.88;;;1.60;;
15067;SDS011;7633;60.024;18.770;2023-08-31T06:49:38;1.80;;;1.70;;
15067;SDS011;7633;60.024;18.770;2023-08-31T06:52:04;2.13;;;1.90;;
15067;SDS011;7633;60.024;18.770;2023-08-31T06:54:32;1.80;;;1.70;;
15067;SDS011;7633;60.024;18.770;2023-08-31T06:56:58;1.73;;;1.63;;
15067;SDS011;7633;60.024;18.770;2023-08-31T06:59:23;2.15;;;1.95;;
15067;SDS011;7633;60.024;18.770;2023-08-31T07:01:49;2.95;;;1.90;;
15067;SDS011;7633;60.024;18.770;2023-08-31T07:04:15;2.00;;;1.90;;
15067;SDS011;7633;60.024;18.770;2023-08-31T07:06:40;2.05;;;1.85;;
15067;SDS011;7633;60.024;18.770;2023-08-31T07:09:05;1.90;;;1.80;;
15067;SDS011;7633;60.024;18.770;2023-08-31T07:11:35;2.25;;;1.90;;
15067;SDS011;7633;60.024;18.770;2023-08-31T07:14:00;1.75;;;1.60;;
15067;SDS011;7633;60.024;18.770;2023-08-31T07:16:25;2.10;;;1.90;;
15067;SDS011;7633;60.024;18.770;2023-08-31T07:18:51;1.60;;;1.50;;
15067;SDS011;7633;60.024;18.770;2023-08-31T07:21:16;2.17;;;1.50;;
15067;SDS011;7633;60.024;18.770;2023-08-31T07:23:42;2.10;;;1.52;;
15067;SDS011;7633;60.024;18.770;2023-08-31T07:26:07;1.88;;;1.63;;
15067;SDS011;7633;60.024;18.770;2023-08-31T07:28:32;1.60;;;1.50;;
15067;SDS011;7633;60.024;18.770;2023-08-31T07:31:07;1.55;;;1.45;;
15067;SDS011;7633;60.024;18.770;2023-08-31T07:33:33;1.70;;;1.60;;
15067;SDS011;7633;60.024;18.770;2023-08-31T07:35:59;2.05;;;1.45;;
15067;SDS011;7633;60.024;18.770;2023-08-31T07:38:25;1.58;;;1.40;;
15067;SDS011;7633;60.024;18.770;2023-08-31T07:40:51;1.58;;;1.48;;
15067;SDS011;7633;60.024;18.770;2023-08-31T07:43:16;2.17;;;1.60;;
15067;SDS011;7633;60.024;18.770;2023-08-31T07:45:42;1.63;;;1.10;;
15067;SDS011;7633;60.024;18.770;2023-08-31T07:48:08;2.88;;;1.80;;
15067;SDS011;7633;60.024;18.770;2023-08-31T07:50:34;1.75;;;1.50;;
15067;SDS011;7633;60.024;18.770;2023-08-31T07:53:02;1.58;;;1.23;;
15067;SDS011;7633;60.024;18.770;2023-08-31T07:55:28;2.03;;;1.42;;
15067;SDS011;7633;60.024;18.770;2023-08-31T07:57:53;1.30;;;1.15;;
15067;SDS011;7633;60.024;18.770;2023-08-31T08:00:19;1.50;;;1.40;;
15067;SDS011;7633;60.024;18.770;2023-08-31T08:02:44;1.77;;;1.65;;
15067;SDS011;7633;60.024;18.770;2023-08-31T08:05:11;1.70;;;1.60;;
15067;SDS011;7633;60.024;18.770;2023-08-31T08:07:36;1.23;;;1.23;;
15067;SDS011;7633;60.024;18.770;2023-08-31T08:10:01;1.50;;;1.40;;
15067;SDS011;7633;60.024;18.770;2023-08-31T08:12:27;1.70;;;1.55;;
15067;SDS011;7633;60.024;18.770;2023-08-31T08:15:01;1.90;;;1.63;;
15067;SDS011;7633;60.024;18.770;2023-08-31T08:17:27;1.75;;;1.65;;
15067;SDS011;7633;60.024;18.770;2023-08-31T08:19:53;1.85;;;1.70;;
15067;SDS011;7633;60.024;18.770;2023-08-31T08:22:18;1.80;;;1.70;;
15067;SDS011;7633;60.024;18.770;2023-08-31T08:24:44;2.20;;;1.98;;
15067;SDS011;7633;60.024;18.770;2023-08-31T08:27:09;1.80;;;1.70;;
15067;SDS011;7633;60.024;18.770;2023-08-31T08:29:34;1.95;;;1.60;;
15067;SDS011;7633;60.024;18.770;2023-08-31T08:32:00;1.50;;;1.40;;
15067;SDS011;7633;60.024;18.770;2023-08-31T08:34:25;1.67;;;1.58;;
15067;SDS011;7633;60.024;18.770;2023-08-31T08:36:52;2.22;;;2.03;;
15067;SDS011;7633;60.024;18.770;2023-08-31T08:39:18;1.63;;;1.50;;
15067;SDS011;7633;60.024;18.770;2023-08-31T08:41:43;3.40;;;1.65;;
15067;SDS011;7633;60.024;18.770;2023-08-31T08:44:09;2.08;;;1.50;;
15067;SDS011;7633;60.024;18.770;2023-08-31T08:46:35;1.70;;;1.60;;
15067;SDS011;7633;60.024;18.770;2023-08-31T08:49:01;1.60;;;1.50;;
15067;SDS011;7633;60.024;18.770;2023-08-31T08:51:27;1.70;;;1.60;;
15067;SDS011;7633;60.024;18.770;2023-08-31T08:53:53;1.88;;;1.70;;
15067;SDS011;7633;60.024;18.770;2023-08-31T08:56:19;1.48;;;1.33;;
15067;SDS011;7633;60.024;18.770;2023-08-31T08:58:44;1.65;;;1.55;;
15067;SDS011;7633;60.024;18.770;2023-08-31T09:01:10;1.55;;;1.45;;
15067;SDS011;7633;60.024;18.770;2023-08-31T09:03:35;2.15;;;1.67;;
15067;SDS011;7633;60.024;18.770;2023-08-31T09:06:01;1.50;;;1.40;;
15067;SDS011;7633;60.024;18.770;2023-08-31T09:08:28;1.30;;;1.20;;
15067;SDS011;7633;60.024;18.770;2023-08-31T09:10:55;1.45;;;1.20;;
15067;SDS011;7633;60.024;18.770;2023-08-31T09:13:20;1.85;;;1.13;;
15067;SDS011;7633;60.024;18.770;2023-08-31T09:15:47;1.52;;;1.42;;
15067;SDS011;7633;60.024;18.770;2023-08-31T09:18:25;1.27;;;1.17;;
15067;SDS011;7633;60.024;18.770;2023-08-31T09:20:51;1.90;;;1.33;;
15067;SDS011;7633;60.024;18.770;2023-08-31T09:23:17;1.77;;;1.38;;
15067;SDS011;7633;60.024;18.770;2023-08-31T09:25:43;2.33;;;0.98;;
15067;SDS011;7633;60.024;18.770;2023-08-31T09:28:11;1.48;;;1.38;;
15067;SDS011;7633;60.024;18.770;2023-08-31T09:30:37;3.40;;;1.60;;
15067;SDS011;7633;60.024;18.770;2023-08-31T09:33:04;1.25;;;1.15;;
15067;SDS011;7633;60.024;18.770;2023-08-31T09:35:29;2.38;;;1.80;;
15067;SDS011;7633;60.024;18.770;2023-08-31T09:37:55;2.20;;;1.25;;
15067;SDS011;7633;60.024;18.770;2023-08-31T09:40:24;1.50;;;1.40;;
15067;SDS011;7633;60.024;18.770;2023-08-31T09:42:50;1.77;;;1.50;;
15067;SDS011;7633;60.024;18.770;2023-08-31T09:45:24;1.50;;;1.40;;
15067;SDS011;7633;60.024;18.770;2023-08-31T09:47:50;2.08;;;1.40;;
15067;SDS011;7633;60.024;18.770;2023-08-31T09:50:16;1.65;;;1.35;;
15067;SDS011;7633;60.024;18.770;2023-08-31T09:52:42;1.35;;;1.20;;
15067;SDS011;7633;60.024;18.770;2023-08-31T09:55:10;1.33;;;1.23;;
15067;SDS011;7633;60.024;18.770;2023-08-31T09:57:36;2.25;;;1.35;;
15067;SDS011;7633;60.024;18.770;2023-08-31T10:00:01;1.50;;;0.90;;
15067;SDS011;7633;60.024;18.770;2023-08-31T10:02:34;1.20;;;1.10;;
15067;SDS011;7633;60.024;18.770;2023-08-31T10:05:00;2.97;;;1.25;;
15067;SDS011;7633;60.024;18.770;2023-08-31T10:07:26;1.27;;;1.02;;
15067;SDS011;7633;60.024;18.770;2023-08-31T10:09:51;2.33;;;1.42;;
15067;SDS011;7633;60.024;18.770;2023-08-31T10:12:17;1.10;;;1.00;;
15067;SDS011;7633;60.024;18.770;2023-08-31T10:14:43;1.77;;;1.20;;
15067;SDS011;7633;60.024;18.770;2023-08-31T10:17:11;1.42;;;1.30;;
15067;SDS011;7633;60.024;18.770;2023-08-31T10:19:37;1.73;;;1.10;;
15067;SDS011;7633;60.024;18.770;2023-08-31T10:22:03;1.20;;;1.10;;
15067;SDS011;7633;60.024;18.770;2023-08-31T10:27:19;1.33;;;1.23;;
15067;SDS011;7633;60.024;18.770;2023-08-31T10:29:44;1.40;;;1.10;;
15067;SDS011;7633;60.024;18.770;2023-08-31T10:32:09;1.27;;;1.15;;
15067;SDS011;7633;60.024;18.770;2023-08-31T10:34:35;1.30;;;1.20;;
15067;SDS011;7633;60.024;18.770;2023-08-31T10:37:02;1.20;;;1.10;;
15067;SDS011;7633;60.024;18.770;2023-08-31T10:39:36;0.98;;;0.98;;
15067;SDS011;7633;60.024;18.770;2023-08-31T10:42:02;2.13;;;1.30;;
15067;SDS011;7633;60.024;18.770;2023-08-31T10:44:32;1.90;;;1.33;;
15067;SDS011;7633;60.024;18.770;2023-08-31T10:46:59;1.45;;;1.35;;
15067;SDS011;7633;60.024;18.770;2023-08-31T10:49:25;1.30;;;1.20;;
15067;SDS011;7633;60.024;18.770;2023-08-31T10:51:54;1.20;;;1.00;;
15067;SDS011;7633;60.024;18.770;2023-08-31T10:54:24;1.27;;;1.17;;
15067;SDS011;7633;60.024;18.770;2023-08-31T10:59:52;1.08;;;1.00;;
15067;SDS011;7633;60.024;18.770;2023-08-31T11:02:27;1.38;;;1.27;;
15067;SDS011;7633;60.024;18.770;2023-08-31T11:05:06;1.15;;;1.05;;
15067;SDS011;7633;60.024;18.770;2023-08-31T11:07:31;1.55;;;1.20;;
15067;SDS011;7633;60.024;18.770;2023-08-31T11:12:31;1.00;;;0.90;;
15067;SDS011;7633;60.024;18.770;2023-08-31T11:14:57;0.80;;;0.80;;
15067;SDS011;7633;60.024;18.770;2023-08-31T11:17:23;1.38;;;1.27;;
15067;SDS011;7633;60.024;18.770;2023-08-31T11:19:48;1.20;;;0.88;;
15067;SDS011;7633;60.024;18.770;2023-08-31T11:22:14;1.15;;;1.00;;
15067;SDS011;7633;60.024;18.770;2023-08-31T11:24:39;2.05;;;1.00;;
15067;SDS011;7633;60.024;18.770;2023-08-31T11:27:08;0.80;;;0.80;;
15067;SDS011;7633;60.024;18.770;2023-08-31T11:29:44;1.30;;;0.80;;
15067;SDS011;7633;60.024;18.770;2023-08-31T11:32:10;1.27;;;0.90;;
15067;SDS011;7633;60.024;18.770;2023-08-31T11:34:39;1.85;;;0.93;;
15067;SDS011;7633;60.024;18.770;2023-08-31T11:37:05;1.10;;;1.00;;
15067;SDS011;7633;60.024;18.770;2023-08-31T11:39:30;1.58;;;0.93;;
15067;SDS011;7633;60.024;18.770;2023-08-31T11:41:56;1.05;;;0.80;;
15067;SDS011;7633;60.024;18.770;2023-08-31T11:44:21;1.30;;;1.10;;
15067;SDS011;7633;60.024;18.770;2023-08-31T11:46:48;1.48;;;0.90;;
15067;SDS011;7633;60.024;18.770;2023-08-31T11:49:15;0.80;;;0.80;;
15067;SDS011;7633;60.024;18.770;2023-08-31T11:51:41;1.13;;;0.82;;
15067;SDS011;7633;60.024;18.770;2023-08-31T11:54:06;0.93;;;0.77;;
15067;SDS011;7633;60.024;18.770;2023-08-31T11:56:44;1.05;;;0.90;;
15067;SDS011;7633;60.024;18.770;2023-08-31T11:59:17;1.10;;;0.82;;
15067;SDS011;7633;60.024;18.770;2023-08-31T12:01:43;0.80;;;0.80;;
15067;SDS011;7633;60.024;18.770;2023-08-31T12:04:12;0.70;;;0.70;;
15067;SDS011;7633;60.024;18.770;2023-08-31T12:06:37;1.10;;;0.80;;
15067;SDS011;7633;60.024;18.770;2023-08-31T12:09:04;0.93;;;0.93;;
15067;SDS011;7633;60.024;18.770;2023-08-31T12:11:30;0.90;;;0.90;;
15067;SDS011;7633;60.024;18.770;2023-08-31T12:13:59;1.10;;;1.00;;
15067;SDS011;7633;60.024;18.770;2023-08-31T12:16:36;1.30;;;0.80;;
15067;SDS011;7633;60.024;18.770;2023-08-31T12:19:04;0.77;;;0.77;;
15067;SDS011;7633;60.024;18.770;2023-08-31T12:21:33;0.77;;;0.77;;
15067;SDS011;7633;60.024;18.770;2023-08-31T12:23:58;1.20;;;0.85;;
15067;SDS011;7633;60.024;18.770;2023-08-31T12:26:24;1.20;;;1.02;;
15067;SDS011;7633;60.024;18.770;2023-08-31T12:28:50;0.88;;;0.60;;
15067;SDS011;7633;60.024;18.770;2023-08-31T12:31:15;0.80;;;0.73;;
15067;SDS011;7633;60.024;18.770;2023-08-31T12:33:40;1.05;;;0.80;;
15067;SDS011;7633;60.024;18.770;2023-08-31T12:36:05;2.13;;;0.90;;
15067;SDS011;7633;60.024;18.770;2023-08-31T12:38:31;0.80;;;0.80;;
15067;SDS011;7633;60.024;18.770;2023-08-31T12:40:56;0.60;;;0.60;;
15067;SDS011;7633;60.024;18.770;2023-08-31T12:43:22;1.35;;;0.80;;
15067;SDS011;7633;60.024;18.770;2023-08-31T12:45:49;1.38;;;0.70;;
15067;SDS011;7633;60.024;18.770;2023-08-31T12:48:14;2.80;;;0.88;;
15067;SDS011;7633;60.024;18.770;2023-08-31T12:50:39;0.68;;;0.60;;
15067;SDS011;7633;60.024;18.770;2023-08-31T12:53:04;1.80;;;0.60;;
15067;SDS011;7633;60.024;18.770;2023-08-31T12:55:30;1.23;;;0.60;;
15067;SDS011;7633;60.024;18.770;2023-08-31T12:57:57;1.48;;;0.80;;
15067;SDS011;7633;60.024;18.770;2023-08-31T13:00:22;0.55;;;0.50;;
15067;SDS011;7633;60.024;18.770;2023-08-31T13:02:51;0.77;;;0.50;;
15067;SDS011;7633;60.024;18.770;2023-08-31T13:05:16;1.00;;;0.50;;
15067;SDS011;7633;60.024;18.770;2023-08-31T13:07:42;0.50;;;0.50;;
15067;SDS011;7633;60.024;18.770;2023-08-31T13:10:07;1.00;;;0.60;;
15067;SDS011;7633;60.024;18.770;2023-08-31T13:12:33;0.60;;;0.60;;
15067;SDS011;7633;60.024;18.770;2023-08-31T13:14:58;0.60;;;0.50;;
15067;SDS011;7633;60.024;18.770;2023-08-31T13:17:24;0.50;;;0.50;;
15067;SDS011;7633;60.024;18.770;2023-08-31T13:19:55;0.60;;;0.60;;
15067;SDS011;7633;60.024;18.770;2023-08-31T13:22:22;0.52;;;0.50;;
15067;SDS011;7633;60.024;18.770;2023-08-31T13:24:47;0.38;;;0.38;;
15067;SDS011;7633;60.024;18.770;2023-08-31T13:27:13;0.85;;;0.55;;
15067;SDS011;7633;60.024;18.770;2023-08-31T13:29:39;0.82;;;0.52;;
15067;SDS011;7633;60.024;18.770;2023-08-31T13:32:04;0.52;;;0.45;;
15067;SDS011;7633;60.024;18.770;2023-08-31T13:34:30;0.52;;;0.50;;
15067;SDS011;7633;60.024;18.770;2023-08-31T13:36:55;0.65;;;0.40;;
15067;SDS011;7633;60.024;18.770;2023-08-31T13:39:21;0.75;;;0.60;;
15067;SDS011;7633;60.024;18.770;2023-08-31T13:41:49;0.50;;;0.40;;
15067;SDS011;7633;60.024;18.770;2023-08-31T13:44:14;0.52;;;0.50;;
15067;SDS011;7633;60.024;18.770;2023-08-31T13:46:39;0.50;;;0.50;;
15067;SDS011;7633;60.024;18.770;2023-08-31T13:49:05;0.63;;;0.40;;
15067;SDS011;7633;60.024;18.770;2023-08-31T13:51:30;0.50;;;0.50;;
15067;SDS011;7633;60.024;18.770;2023-08-31T13:53:55;0.52;;;0.50;;
15067;SDS011;7633;60.024;18.770;2023-08-31T13:56:20;0.57;;;0.47;;
15067;SDS011;7633;60.024;18.770;2023-08-31T13:58:46;1.52;;;0.45;;
15067;SDS011;7633;60.024;18.770;2023-08-31T14:01:13;0.50;;;0.50;;
15067;SDS011;7633;60.024;18.770;2023-08-31T14:03:38;0.65;;;0.65;;
15067;SDS011;7633;60.024;18.770;2023-08-31T14:06:04;0.60;;;0.40;;
15067;SDS011;7633;60.024;18.770;2023-08-31T14:08:30;0.50;;;0.40;;
15067;SDS011;7633;60.024;18.770;2023-08-31T14:10:55;0.57;;;0.43;;
15067;SDS011;7633;60.024;18.770;2023-08-31T14:13:22;0.68;;;0.40;;
15067;SDS011;7633;60.024;18.770;2023-08-31T14:15:47;1.30;;;0.70;;
15067;SDS011;7633;60.024;18.770;2023-08-31T14:18:13;0.98;;;0.57;;
15067;SDS011;7633;60.024;18.770;2023-08-31T14:20:38;0.50;;;0.40;;
15067;SDS011;7633;60.024;18.770;2023-08-31T14:23:04;0.40;;;0.40;;
15067;SDS011;7633;60.024;18.770;2023-08-31T14:25:34;0.77;;;0.77;;
15067;SDS011;7633;60.024;18.770;2023-08-31T14:27:59;0.55;;;0.52;;
15067;SDS011;7633;60.024;18.770;2023-08-31T14:30:25;1.35;;;0.60;;
15067;SDS011;7633;60.024;18.770;2023-08-31T14:32:51;0.95;;;0.60;;
15067;SDS011;7633;60.024;18.770;2023-08-31T14:35:17;0.50;;;0.50;;
15067;SDS011;7633;60.024;18.770;2023-08-31T14:37:43;0.77;;;0.40;;
15067;SDS011;7633;60.024;18.770;2023-08-31T14:40:08;0.50;;;0.50;;
15067;SDS011;7633;60.024;18.770;2023-08-31T14:42:34;0.73;;;0.60;;
15067;SDS011;7633;60.024;18.770;2023-08-31T14:44:59;0.80;;;0.80;;
15067;SDS011;7633;60.024;18.770;2023-08-31T14:47:25;0.45;;;0.45;;
15067;SDS011;7633;60.024;18.770;2023-08-31T14:49:50;0.80;;;0.65;;
15067;SDS011;7633;60.024;18.770;2023-08-31T14:52:16;1.23;;;0.55;;
15067;SDS011;7633;60.024;18.770;2023-08-31T14:54:41;1.17;;;0.60;;